createdAt,value
2023-01-01T00:01:42.887Z,103.72
2023-01-01T00:04:15.052Z,104.00
2023-01-01T00:06:42.912Z,108.10
2023-01-01T00:09:28.352Z,102.35
2023-01-01T00:11:55.108Z,101.95
2023-01-01T00:14:21.833Z,99.32
2023-01-01T00:16:48.567Z,97.72
2023-01-01T00:19:15.243Z,97.72
2023-01-01T00:21:42.053Z,96.85
2023-01-01T00:24:09.122Z,95.45
2023-01-01T00:26:35.897Z,95.75
2023-01-01T00:29:03.820Z,89.40
2023-01-01T00:31:30.727Z,91.25
2023-01-01T00:33:57.945Z,86.80
2023-01-01T00:36:26.992Z,81.18
2023-01-01T00:38:54.409Z,74.60
2023-01-01T00:41:21.463Z,72.65
2023-01-01T00:43:48.415Z,74.95
2023-01-01T00:46:15.506Z,68.85
2023-01-01T00:48:42.311Z,66.90
2023-01-01T00:51:09.283Z,72.90
2023-01-01T00:53:36.072Z,73.60
2023-01-01T00:56:03.395Z,71.93
2023-01-01T00:58:30.134Z,70.13
2023-01-01T01:00:56.844Z,69.97
2023-01-01T01:03:30.318Z,70.22
2023-01-01T01:05:58.602Z,62.45
2023-01-01T01:08:30.661Z,68.68
2023-01-01T01:11:05.897Z,69.57
2023-01-01T01:13:32.792Z,67.00
2023-01-01T01:15:59.485Z,61.78
2023-01-01T01:18:26.174Z,56.85
2023-01-01T01:20:54.180Z,55.20
2023-01-01T01:23:21.264Z,53.35
2023-01-01T01:25:48.127Z,52.08
2023-01-01T01:28:14.988Z,46.05
2023-01-01T01:30:42.079Z,45.15
2023-01-01T01:33:08.784Z,41.33
2023-01-01T01:35:35.978Z,43.22
2023-01-01T01:38:02.745Z,43.05
2023-01-01T01:40:29.568Z,42.47
2023-01-01T01:42:56.223Z,45.70
2023-01-01T01:45:25.859Z,40.00
2023-01-01T01:47:58.950Z,37.78
2023-01-01T01:50:39.038Z,38.72
2023-01-01T01:53:20.103Z,39.63
2023-01-01T01:58:16.068Z,39.40
2023-01-01T02:00:43.151Z,42.53
2023-01-01T02:03:16.413Z,44.03
2023-01-01T02:05:44.347Z,35.33
2023-01-01T02:08:14.548Z,30.80
2023-01-01T02:10:41.452Z,31.30
2023-01-01T02:13:08.136Z,31.35
2023-01-01T02:15:57.366Z,27.60
2023-01-01T02:18:39.363Z,28.55
2023-01-01T02:21:12.936Z,29.45
2023-01-01T02:23:51.619Z,29.77
2023-01-01T02:26:42.481Z,34.85
2023-01-01T02:29:38.572Z,39.85
2023-01-01T02:32:15.849Z,45.67
2023-01-01T02:34:49.703Z,42.22
2023-01-01T02:37:18.761Z,43.15
2023-01-01T02:39:51.498Z,39.90
2023-01-01T02:42:19.096Z,37.28
2023-01-01T02:44:50.779Z,34.95
2023-01-01T02:47:19.896Z,34.20
2023-01-01T02:49:56.052Z,35.80
2023-01-01T02:52:50.419Z,38.58
2023-01-01T02:55:28.484Z,35.45
2023-01-01T02:58:32.522Z,33.55
2023-01-01T03:01:09.241Z,36.00
2023-01-01T03:03:52.050Z,37.22
2023-01-01T03:06:34.278Z,38.45
2023-01-01T03:09:18.801Z,34.30
2023-01-01T03:12:02.845Z,34.15
2023-01-01T03:14:43.732Z,36.90
2023-01-01T03:17:36.052Z,37.70
2023-01-01T03:20:08.207Z,35.53
2023-01-01T03:25:08.081Z,31.40
2023-01-01T03:30:09.082Z,30.10
2023-01-01T03:32:59.770Z,32.30
2023-01-01T03:35:39.060Z,30.08
2023-01-01T03:38:17.903Z,29.77
2023-01-01T03:40:48.415Z,25.58
2023-01-01T03:43:35.319Z,22.30
2023-01-01T03:46:04.173Z,28.45
2023-01-01T03:48:50.914Z,22.45
2023-01-01T03:51:40.150Z,20.77
2023-01-01T03:54:16.613Z,23.02
2023-01-01T03:56:52.477Z,24.92
2023-01-01T03:59:28.201Z,28.92
2023-01-01T04:01:58.752Z,27.60
2023-01-01T04:04:27.079Z,28.52
2023-01-01T04:06:54.847Z,29.55
2023-01-01T04:09:28.429Z,28.25
2023-01-01T04:12:06.198Z,28.20
2023-01-01T04:14:39.661Z,26.75
2023-01-01T04:17:08.209Z,24.52
2023-01-01T04:19:34.934Z,25.90
2023-01-01T04:22:02.935Z,26.90
2023-01-01T04:24:29.680Z,28.27
2023-01-01T04:26:56.813Z,29.65
2023-01-01T04:29:23.658Z,27.70
2023-01-01T04:31:50.602Z,29.30
2023-01-01T04:34:17.239Z,20.73
2023-01-01T04:36:43.915Z,23.73
2023-01-01T04:39:10.576Z,18.83
2023-01-01T04:41:37.244Z,14.63
2023-01-01T04:44:04.069Z,21.25
2023-01-01T04:46:30.757Z,17.83
2023-01-01T04:48:57.510Z,12.15
2023-01-01T04:51:24.236Z,12.70
2023-01-01T04:53:50.889Z,13.05
2023-01-01T04:56:20.658Z,14.38
2023-01-01T04:58:48.944Z,13.82
2023-01-01T05:01:22.119Z,14.02
2023-01-01T05:03:49.585Z,11.43
2023-01-01T05:06:16.660Z,18.13
2023-01-01T05:08:45.833Z,13.63
2023-01-01T05:11:18.287Z,9.52
2023-01-01T05:13:47.094Z,11.93
2023-01-01T05:16:16.518Z,8.68
2023-01-01T05:18:43.690Z,9.68
2023-01-01T05:21:16.338Z,9.30
2023-01-01T05:23:43.207Z,7.32
2023-01-01T05:26:11.885Z,7.15
2023-01-01T05:28:39.473Z,7.40
2023-01-01T05:31:27.924Z,8.48
2023-01-01T05:33:55.507Z,6.95
2023-01-01T05:36:24.963Z,7.53
2023-01-01T05:38:52.260Z,6.63
2023-01-01T05:41:20.311Z,8.10
2023-01-01T05:43:47.592Z,7.88
2023-01-01T05:46:20.881Z,10.10
2023-01-01T05:48:48.476Z,10.25
2023-01-01T05:51:18.147Z,9.68
2023-01-01T05:53:44.863Z,9.00
2023-01-01T05:56:12.201Z,8.60
2023-01-01T05:58:38.911Z,7.43
2023-01-01T06:01:23.810Z,9.30
2023-01-01T06:03:51.479Z,6.90
2023-01-01T06:06:20.770Z,7.65
2023-01-01T06:08:51.823Z,6.20
2023-01-01T06:11:18.923Z,5.85
2023-01-01T06:13:45.973Z,6.50
2023-01-01T06:16:13.281Z,5.82
2023-01-01T06:18:39.975Z,5.45
2023-01-01T06:21:09.392Z,4.95
2023-01-01T06:23:36.680Z,6.10
2023-01-01T06:26:08.491Z,5.78
2023-01-01T06:28:35.503Z,4.78
2023-01-01T06:31:07.381Z,5.72
2023-01-01T06:33:34.702Z,4.38
2023-01-01T06:36:07.364Z,4.20
2023-01-01T06:38:35.284Z,4.40
2023-01-01T06:41:04.839Z,3.25
2023-01-01T06:43:32.963Z,3.92
2023-01-01T06:46:19.733Z,4.88
2023-01-01T06:48:48.792Z,3.67
2023-01-01T06:51:18.069Z,4.53
2023-01-01T06:53:45.550Z,4.28
2023-01-01T06:56:12.494Z,4.25
2023-01-01T06:58:39.212Z,3.88
2023-01-01T07:01:09.842Z,3.90
2023-01-01T07:03:37.539Z,3.55
2023-01-01T07:06:05.526Z,3.90
2023-01-01T07:08:32.180Z,3.85
2023-01-01T07:10:58.836Z,3.85
2023-01-01T07:13:27.145Z,4.78
2023-01-01T07:15:54.433Z,4.13
2023-01-01T07:18:22.952Z,3.90
2023-01-01T07:21:00.839Z,3.63
2023-01-01T07:23:28.846Z,4.30
2023-01-01T07:25:56.281Z,4.28
2023-01-01T07:28:24.420Z,3.70
2023-01-01T07:30:53.513Z,3.67
2023-01-01T07:33:22.820Z,4.80
2023-01-01T07:35:49.635Z,4.13
2023-01-01T07:38:16.325Z,3.63
2023-01-01T07:40:43.322Z,4.25
2023-01-01T07:43:10.073Z,3.50
2023-01-01T07:45:36.818Z,3.47
2023-01-01T07:48:03.847Z,3.65
2023-01-01T07:50:32.989Z,3.63
2023-01-01T07:52:59.604Z,3.95
2023-01-01T07:55:26.961Z,3.30
2023-01-01T07:57:53.710Z,3.65
2023-01-01T08:00:21.695Z,4.13
2023-01-01T08:02:49.858Z,3.60
2023-01-01T08:05:22.683Z,4.28
2023-01-01T08:07:52.775Z,4.32
2023-01-01T08:10:20.407Z,3.40
2023-01-01T08:12:47.511Z,6.53
2023-01-01T08:15:15.120Z,3.25
2023-01-01T08:17:46.379Z,4.55
2023-01-01T08:20:14.101Z,3.85
2023-01-01T08:22:40.762Z,3.55
2023-01-01T08:25:08.413Z,3.60
2023-01-01T08:27:35.120Z,3.22
2023-01-01T08:30:01.801Z,3.60
2023-01-01T08:32:28.449Z,4.53
2023-01-01T08:34:55.097Z,4.25
2023-01-01T08:37:22.717Z,7.38
2023-01-01T08:39:51.224Z,4.28
2023-01-01T08:42:18.492Z,4.65
2023-01-01T08:44:45.171Z,4.18
2023-01-01T08:47:19.852Z,4.13
2023-01-01T08:49:46.814Z,3.13
2023-01-01T08:52:14.547Z,3.42
2023-01-01T08:54:41.583Z,3.60
2023-01-01T08:57:08.335Z,3.08
2023-01-01T08:59:34.982Z,3.53
2023-01-01T09:02:01.863Z,2.83
2023-01-01T09:04:28.804Z,3.50
2023-01-01T09:06:55.467Z,3.25
2023-01-01T09:09:27.236Z,2.90
2023-01-01T09:12:05.741Z,2.85
2023-01-01T09:14:33.654Z,2.53
2023-01-01T09:17:00.379Z,2.30
2023-01-01T09:19:28.258Z,1.98
2023-01-01T09:21:55.154Z,1.90
2023-01-01T09:24:22.198Z,1.80
2023-01-01T09:26:48.931Z,1.98
2023-01-01T09:29:20.514Z,1.73
2023-01-01T09:31:48.495Z,1.67
2023-01-01T09:34:16.287Z,1.75
2023-01-01T09:36:42.998Z,1.70
2023-01-01T09:39:15.367Z,2.00
2023-01-01T09:41:47.808Z,1.63
2023-01-01T09:44:45.141Z,1.80
2023-01-01T09:47:34.419Z,1.55
2023-01-01T09:50:06.632Z,1.48
2023-01-01T09:52:55.319Z,1.48
2023-01-01T09:55:26.009Z,1.27
2023-01-01T09:57:54.235Z,1.55
2023-01-01T10:00:21.109Z,1.42
2023-01-01T10:03:33.170Z,1.90
2023-01-01T10:06:28.684Z,1.58
2023-01-01T10:09:09.462Z,2.10
2023-01-01T10:11:50.702Z,2.10
2023-01-01T10:14:28.387Z,2.53
2023-01-01T10:16:57.135Z,2.85
2023-01-01T10:19:39.943Z,2.45
2023-01-01T10:22:23.735Z,2.58
2023-01-01T10:24:58.209Z,2.45
2023-01-01T10:27:34.057Z,2.08
2023-01-01T10:30:05.010Z,2.28
2023-01-01T10:32:35.891Z,3.13
2023-01-01T10:35:13.995Z,2.88
2023-01-01T10:37:41.227Z,3.42
2023-01-01T10:40:29.208Z,2.10
2023-01-01T10:42:58.570Z,2.85
2023-01-01T10:45:38.322Z,3.22
2023-01-01T10:48:12.915Z,2.17
2023-01-01T10:50:50.108Z,2.05
2023-01-01T10:53:41.673Z,2.30
2023-01-01T10:56:18.757Z,2.58
2023-01-01T10:58:47.092Z,2.05
2023-01-01T11:01:24.647Z,2.75
2023-01-01T11:03:56.092Z,1.77
2023-01-01T11:06:31.527Z,1.73
2023-01-01T11:09:03.343Z,1.75
2023-01-01T11:11:35.968Z,2.22
2023-01-01T11:14:06.038Z,2.05
2023-01-01T11:16:33.298Z,1.83
2023-01-01T11:19:08.778Z,1.83
2023-01-01T11:21:35.855Z,1.88
2023-01-01T11:24:18.969Z,1.63
2023-01-01T11:26:50.563Z,1.67
2023-01-01T11:29:29.684Z,1.88
2023-01-01T11:31:58.386Z,1.92
2023-01-01T11:34:40.433Z,1.38
2023-01-01T11:37:33.049Z,0.93
2023-01-01T11:40:01.471Z,1.40
2023-01-01T11:42:31.119Z,1.10
2023-01-01T11:45:06.067Z,1.30
2023-01-01T11:47:37.667Z,1.20
2023-01-01T11:50:16.443Z,1.40
2023-01-01T11:52:45.816Z,1.17
2023-01-01T11:55:20.647Z,1.50
2023-01-01T11:58:17.555Z,1.38
2023-01-01T12:00:49.220Z,0.90
2023-01-01T12:03:33.633Z,1.33
2023-01-01T12:06:15.364Z,1.30
2023-01-01T12:09:06.540Z,1.30
2023-01-01T12:11:51.172Z,1.30
2023-01-01T12:14:33.537Z,1.10
2023-01-01T12:17:21.367Z,0.95
2023-01-01T12:20:02.233Z,1.02
2023-01-01T12:22:28.999Z,1.25
2023-01-01T12:24:57.349Z,1.05
2023-01-01T12:27:26.929Z,1.25
2023-01-01T12:30:10.618Z,1.05
2023-01-01T12:32:53.718Z,1.00
2023-01-01T12:35:20.498Z,1.10
2023-01-01T12:38:14.130Z,1.30
2023-01-01T12:40:59.516Z,1.10
2023-01-01T12:43:37.567Z,0.95
2023-01-01T12:46:07.067Z,0.95
2023-01-01T12:49:01.598Z,1.08
2023-01-01T12:51:58.142Z,1.10
2023-01-01T12:54:46.170Z,1.20
2023-01-01T12:58:08.842Z,1.20
2023-01-01T13:00:39.669Z,0.90
2023-01-01T13:03:21.278Z,1.10
2023-01-01T13:05:52.851Z,1.10
2023-01-01T13:08:19.569Z,1.08
2023-01-01T13:10:50.031Z,1.17
2023-01-01T13:13:17.886Z,1.50
2023-01-01T13:15:48.589Z,1.20
2023-01-01T13:18:15.286Z,1.10
2023-01-01T13:20:44.379Z,0.82
2023-01-01T13:23:38.140Z,1.38
2023-01-01T13:26:20.695Z,1.15
2023-01-01T13:28:59.336Z,1.30
2023-01-01T13:31:46.217Z,1.40
2023-01-01T13:34:35.366Z,1.35
2023-01-01T13:37:11.101Z,1.23
2023-01-01T13:40:00.049Z,0.98
2023-01-01T13:43:04.315Z,1.08
2023-01-01T13:49:11.280Z,1.15
2023-01-01T13:52:06.407Z,0.90
2023-01-01T13:55:01.853Z,1.25
2023-01-01T13:57:36.957Z,1.10
2023-01-01T14:00:30.461Z,1.08
2023-01-01T14:03:00.612Z,1.40
2023-01-01T14:05:49.245Z,1.13
2023-01-01T14:08:34.240Z,1.20
2023-01-01T14:11:03.404Z,1.20
2023-01-01T14:13:38.958Z,1.20
2023-01-01T14:16:10.807Z,1.23
2023-01-01T14:18:50.440Z,1.30
2023-01-01T14:21:22.968Z,1.95
2023-01-01T14:23:59.220Z,1.17
2023-01-01T14:26:28.064Z,0.98
2023-01-01T14:29:00.170Z,1.20
2023-01-01T14:31:30.569Z,1.23
2023-01-01T14:33:57.474Z,1.60
2023-01-01T14:36:30.222Z,1.50
2023-01-01T14:39:00.730Z,1.60
2023-01-01T14:41:35.852Z,1.23
2023-01-01T14:44:11.529Z,1.48
2023-01-01T14:46:46.381Z,2.00
2023-01-01T14:49:29.118Z,1.88
2023-01-01T14:52:00.094Z,1.25
2023-01-01T14:54:33.215Z,1.23
2023-01-01T14:57:00.930Z,1.02
2023-01-01T14:59:32.912Z,1.20
2023-01-01T15:02:09.168Z,1.30
2023-01-01T15:04:36.120Z,1.15
2023-01-01T15:07:02.787Z,1.38
2023-01-01T15:09:31.518Z,1.15
2023-01-01T15:11:59.478Z,1.30
2023-01-01T15:14:37.690Z,1.50
2023-01-01T15:17:07.448Z,1.67
2023-01-01T15:19:35.356Z,1.63
2023-01-01T15:22:08.153Z,1.98
2023-01-01T15:24:37.611Z,1.70
2023-01-01T15:27:06.593Z,1.38
2023-01-01T15:29:39.029Z,1.70
2023-01-01T15:32:11.564Z,2.00
2023-01-01T15:35:02.998Z,1.70
2023-01-01T15:37:37.945Z,1.45
2023-01-01T15:40:24.566Z,1.70
2023-01-01T15:42:57.267Z,1.60
2023-01-01T15:45:38.260Z,22.02
2023-01-01T15:50:54.882Z,2.65
2023-01-01T15:53:29.715Z,1.90
2023-01-01T15:56:09.408Z,5.88
2023-01-01T15:58:48.109Z,1.83
2023-01-01T16:01:23.755Z,1.45
2023-01-01T16:04:00.503Z,2.55
2023-01-01T16:06:27.816Z,2.65
2023-01-01T16:08:54.446Z,5.00
2023-01-01T16:11:21.082Z,11.05
2023-01-01T16:13:47.705Z,3.85
2023-01-01T16:16:24.408Z,5.00
2023-01-01T16:18:51.618Z,8.57
2023-01-01T16:21:19.085Z,11.45
2023-01-01T16:23:45.723Z,6.03
2023-01-01T16:26:13.932Z,4.80
2023-01-01T16:28:40.686Z,3.22
2023-01-01T16:31:07.669Z,4.18
2023-01-01T16:33:34.351Z,4.22
2023-01-01T16:36:00.945Z,4.03
2023-01-01T16:38:27.577Z,3.78
2023-01-01T16:40:54.164Z,4.82
2023-01-01T16:43:21.063Z,16.63
2023-01-01T16:45:47.804Z,40.53
2023-01-01T16:48:14.534Z,6.07
2023-01-01T16:50:41.178Z,4.72
2023-01-01T16:53:07.817Z,4.47
2023-01-01T16:55:34.438Z,6.43
2023-01-01T16:58:38.136Z,5.85
2023-01-01T17:00:48.011Z,17.30
2023-01-01T17:03:15.252Z,4.82
2023-01-01T17:05:44.668Z,4.00
2023-01-01T17:08:11.868Z,3.25
2023-01-01T17:10:38.502Z,5.05
2023-01-01T17:13:05.159Z,4.60
2023-01-01T17:15:32.580Z,4.13
2023-01-01T17:17:59.638Z,5.25
2023-01-01T17:20:28.137Z,10.43
2023-01-01T17:22:54.921Z,10.63
2023-01-01T17:25:21.678Z,4.28
2023-01-01T17:27:48.450Z,6.20
2023-01-01T17:30:15.213Z,4.43
2023-01-01T17:32:41.850Z,18.02
2023-01-01T17:35:08.814Z,24.02
2023-01-01T17:37:35.542Z,12.00
2023-01-01T17:40:02.538Z,7.63
2023-01-01T17:42:29.654Z,11.02
2023-01-01T17:44:56.269Z,28.10
2023-01-01T17:47:26.656Z,16.55
2023-01-01T17:49:55.865Z,10.98
2023-01-01T17:52:22.604Z,6.82
2023-01-01T17:54:49.221Z,14.13
2023-01-01T17:57:15.876Z,10.82
2023-01-01T17:59:42.594Z,5.57
2023-01-01T18:02:12.884Z,24.80
2023-01-01T18:04:40.311Z,173.60
2023-01-01T18:07:07.030Z,74.35
2023-01-01T18:09:33.795Z,37.58
2023-01-01T18:12:00.475Z,21.55
2023-01-01T18:14:27.136Z,5.38
2023-01-01T18:16:53.792Z,4.90
2023-01-01T18:19:20.737Z,5.45
2023-01-01T18:21:47.486Z,6.47
2023-01-01T18:24:15.777Z,5.70
2023-01-01T18:26:42.845Z,8.95
2023-01-01T18:29:09.586Z,10.88
2023-01-01T18:31:36.286Z,7.82
2023-01-01T18:34:04.384Z,8.15
2023-01-01T18:36:33.401Z,6.40
2023-01-01T18:39:20.271Z,262.70
2023-01-01T18:42:05.477Z,20.42
2023-01-01T18:44:33.929Z,17.90
2023-01-01T18:47:06.611Z,9.85
2023-01-01T18:49:35.938Z,8.98
2023-01-01T18:52:08.480Z,9.73
2023-01-01T18:54:35.942Z,10.15
2023-01-01T18:57:09.594Z,7.78
2023-01-01T18:59:39.771Z,14.95
2023-01-01T19:02:21.861Z,13.48
2023-01-01T19:04:49.587Z,7.85
2023-01-01T19:07:16.955Z,8.05
2023-01-01T19:09:44.031Z,36.30
2023-01-01T19:12:15.383Z,8.57
2023-01-01T19:14:42.026Z,6.03
2023-01-01T19:17:20.904Z,6.28
2023-01-01T19:19:48.501Z,5.75
2023-01-01T19:22:33.517Z,7.28
2023-01-01T19:25:02.961Z,5.00
2023-01-01T19:27:34.001Z,6.07
2023-01-01T19:30:02.128Z,5.53
2023-01-01T19:32:28.744Z,8.98
2023-01-01T19:34:56.320Z,13.70
2023-01-01T19:37:22.937Z,9.80
2023-01-01T19:39:50.336Z,14.38
2023-01-01T19:42:16.963Z,14.15
2023-01-01T19:44:43.579Z,14.32
2023-01-01T19:47:10.543Z,12.80
2023-01-01T19:49:37.248Z,11.93
2023-01-01T19:52:04.025Z,15.57
2023-01-01T19:54:30.685Z,16.70
2023-01-01T19:56:57.383Z,29.15
2023-01-01T19:59:29.268Z,13.95
2023-01-01T20:02:35.033Z,9.18
2023-01-01T20:04:46.168Z,8.85
2023-01-01T20:07:12.964Z,15.75
2023-01-01T20:09:39.606Z,17.85
2023-01-01T20:12:06.323Z,7.32
2023-01-01T20:14:32.998Z,7.53
2023-01-01T20:16:59.613Z,9.75
2023-01-01T20:19:26.231Z,7.43
2023-01-01T20:22:11.232Z,8.13
2023-01-01T20:24:45.044Z,6.07
2023-01-01T20:27:12.869Z,5.65
2023-01-01T20:29:40.233Z,5.57
2023-01-01T20:32:12.545Z,8.93
2023-01-01T20:34:40.276Z,24.23
2023-01-01T20:37:25.902Z,15.30
2023-01-01T20:39:52.927Z,14.30
2023-01-01T20:42:19.816Z,20.95
2023-01-01T20:44:46.487Z,10.70
2023-01-01T20:47:13.986Z,8.20
2023-01-01T20:49:41.688Z,7.80
2023-01-01T20:52:08.699Z,8.57
2023-01-01T20:54:35.348Z,7.10
2023-01-01T20:57:01.991Z,9.68
2023-01-01T20:59:37.859Z,8.45
2023-01-01T21:02:10.390Z,5.07
2023-01-01T21:04:38.992Z,8.68
2023-01-01T21:07:07.814Z,14.35
2023-01-01T21:09:34.503Z,6.13
2023-01-01T21:12:01.965Z,5.93
2023-01-01T21:14:28.854Z,6.10
2023-01-01T21:16:55.505Z,5.55
2023-01-01T21:19:26.589Z,6.07
2023-01-01T21:21:56.808Z,5.95
2023-01-01T21:24:28.821Z,4.88
2023-01-01T21:27:05.504Z,5.47
2023-01-01T21:29:33.112Z,9.05
2023-01-01T21:32:18.755Z,6.07
2023-01-01T21:34:46.049Z,7.30
2023-01-01T21:37:45.296Z,4.63
2023-01-01T21:40:35.853Z,20.80
2023-01-01T21:43:02.440Z,11.55
2023-01-01T21:45:35.750Z,7.13
2023-01-01T21:48:16.502Z,13.90
2023-01-01T21:50:46.039Z,7.43
2023-01-01T21:53:20.469Z,6.20
2023-01-01T21:55:54.866Z,9.55
2023-01-01T21:58:59.814Z,5.03
2023-01-01T22:01:30.447Z,7.70
2023-01-01T22:04:09.330Z,6.38
2023-01-01T22:07:56.460Z,5.40
2023-01-01T22:10:16.485Z,5.03
2023-01-01T22:12:43.404Z,5.30
2023-01-01T22:15:40.460Z,5.40
2023-01-01T22:18:18.390Z,7.13
2023-01-01T22:20:46.293Z,8.18
2023-01-01T22:23:34.769Z,6.88
2023-01-01T22:26:21.328Z,7.35
2023-01-01T22:28:51.041Z,19.40
2023-01-01T22:31:27.067Z,5.97
2023-01-01T22:33:56.482Z,5.18
2023-01-01T22:36:33.625Z,4.80
2023-01-01T22:39:13.782Z,5.55
2023-01-01T22:41:42.085Z,9.47
2023-01-01T22:44:11.163Z,7.90
2023-01-01T22:46:40.664Z,7.57
2023-01-01T22:49:21.584Z,6.20
2023-01-01T22:51:51.117Z,6.25
2023-01-01T22:54:17.886Z,10.20
2023-01-01T22:56:44.553Z,9.23
2023-01-01T22:59:11.188Z,6.05
2023-01-01T23:01:37.914Z,6.13
2023-01-01T23:04:04.677Z,5.35
2023-01-01T23:06:32.557Z,4.57
2023-01-01T23:08:59.553Z,4.95
2023-01-01T23:11:27.415Z,5.00
2023-01-01T23:14:12.545Z,5.13
2023-01-01T23:16:39.166Z,4.68
2023-01-01T23:19:06.491Z,4.90
2023-01-01T23:21:35.417Z,4.55
2023-01-01T23:24:06.096Z,5.20
2023-01-01T23:26:32.913Z,5.88
2023-01-01T23:28:59.547Z,6.15
2023-01-01T23:31:27.672Z,6.30
2023-01-01T23:33:56.965Z,4.72
2023-01-01T23:36:25.771Z,5.13
2023-01-01T23:38:52.656Z,5.30
2023-01-01T23:41:19.463Z,5.20
2023-01-01T23:43:46.081Z,5.20
2023-01-01T23:46:14.054Z,5.38
2023-01-01T23:48:43.333Z,5.25
2023-01-01T23:51:10.819Z,5.13
2023-01-01T23:53:37.474Z,5.18
2023-01-01T23:56:04.318Z,4.85
2023-01-01T23:58:30.951Z,5.43
